sensor_id;sensor_type;location;lat;lon;timestamp;P1;durP1;ratioP1;P2;durP2;ratioP2
11761;SDS011;5938;47.098;15.474;2023-03-24T00:02:26;15.80;;;12.63;;
11761;SDS011;5938;47.098;15.474;2023-03-24T00:06:31;16.13;;;13.30;;
11761;SDS011;5938;47.098;15.474;2023-03-24T00:10:37;16.13;;;12.50;;
11761;SDS011;5938;47.098;15.474;2023-03-24T00:14:43;13.60;;;11.97;;
11761;SDS011;5938;47.098;15.474;2023-03-24T00:18:48;19.97;;;12.07;;
11761;SDS011;5938;47.098;15.474;2023-03-24T00:22:56;12.23;;;10.97;;
11761;SDS011;5938;47.098;15.474;2023-03-24T00:27:01;13.87;;;12.17;;
11761;SDS011;5938;47.098;15.474;2023-03-24T00:31:05;14.07;;;11.90;;
11761;SDS011;5938;47.098;15.474;2023-03-24T00:35:10;14.00;;;12.53;;
11761;SDS011;5938;47.098;15.474;2023-03-24T00:39:16;12.97;;;11.27;;
11761;SDS011;5938;47.098;15.474;2023-03-24T00:43:20;15.73;;;12.60;;
11761;SDS011;5938;47.098;15.474;2023-03-24T00:47:24;14.00;;;12.50;;
11761;SDS011;5938;47.098;15.474;2023-03-24T00:51:29;14.00;;;10.70;;
11761;SDS011;5938;47.098;15.474;2023-03-24T00:55:36;14.63;;;13.03;;
11761;SDS011;5938;47.098;15.474;2023-03-24T00:59:39;14.80;;;12.30;;
11761;SDS011;5938;47.098;15.474;2023-03-24T01:03:49;14.83;;;13.33;;
11761;SDS011;5938;47.098;15.474;2023-03-24T01:12:08;14.80;;;12.77;;
11761;SDS011;5938;47.098;15.474;2023-03-24T01:16:11;16.60;;;13.33;;
11761;SDS011;5938;47.098;15.474;2023-03-24T01:20:15;15.37;;;13.03;;
11761;SDS011;5938;47.098;15.474;2023-03-24T01:24:18;16.27;;;13.90;;
11761;SDS011;5938;47.098;15.474;2023-03-24T01:28:23;16.77;;;12.90;;
11761;SDS011;5938;47.098;15.474;2023-03-24T01:32:27;19.60;;;13.97;;
11761;SDS011;5938;47.098;15.474;2023-03-24T01:36:31;16.17;;;13.37;;
11761;SDS011;5938;47.098;15.474;2023-03-24T01:40:36;17.90;;;14.07;;
11761;SDS011;5938;47.098;15.474;2023-03-24T01:44:44;15.03;;;12.97;;
11761;SDS011;5938;47.098;15.474;2023-03-24T01:48:49;14.67;;;12.97;;
11761;SDS011;5938;47.098;15.474;2023-03-24T01:52:54;23.43;;;18.00;;
11761;SDS011;5938;47.098;15.474;2023-03-24T01:56:59;16.00;;;12.80;;
11761;SDS011;5938;47.098;15.474;2023-03-24T02:01:08;12.80;;;11.50;;
11761;SDS011;5938;47.098;15.474;2023-03-24T02:05:13;14.80;;;13.23;;
11761;SDS011;5938;47.098;15.474;2023-03-24T02:09:16;14.30;;;12.80;;
11761;SDS011;5938;47.098;15.474;2023-03-24T02:13:20;16.93;;;14.10;;
11761;SDS011;5938;47.098;15.474;2023-03-24T02:17:29;19.30;;;12.73;;
11761;SDS011;5938;47.098;15.474;2023-03-24T02:22:05;18.70;;;14.57;;
11761;SDS011;5938;47.098;15.474;2023-03-24T02:44:50;13.93;;;12.27;;
11761;SDS011;5938;47.098;15.474;2023-03-24T02:49:08;17.90;;;14.03;;
11761;SDS011;5938;47.098;15.474;2023-03-24T02:53:21;20.77;;;14.67;;
11761;SDS011;5938;47.098;15.474;2023-03-24T02:57:34;21.73;;;14.60;;
11761;SDS011;5938;47.098;15.474;2023-03-24T03:01:43;16.93;;;14.60;;
11761;SDS011;5938;47.098;15.474;2023-03-24T03:05:55;17.77;;;13.50;;
11761;SDS011;5938;47.098;15.474;2023-03-24T03:10:02;16.50;;;14.03;;
11761;SDS011;5938;47.098;15.474;2023-03-24T03:14:11;14.77;;;13.20;;
11761;SDS011;5938;47.098;15.474;2023-03-24T03:18:20;15.60;;;13.43;;
11761;SDS011;5938;47.098;15.474;2023-03-24T03:22:27;17.93;;;14.60;;
11761;SDS011;5938;47.098;15.474;2023-03-24T03:26:35;19.40;;;14.17;;
11761;SDS011;5938;47.098;15.474;2023-03-24T03:30:41;17.07;;;15.03;;
11761;SDS011;5938;47.098;15.474;2023-03-24T03:34:49;16.87;;;13.53;;
11761;SDS011;5938;47.098;15.474;2023-03-24T03:38:59;18.50;;;13.63;;
11761;SDS011;5938;47.098;15.474;2023-03-24T03:43:08;16.83;;;14.10;;
11761;SDS011;5938;47.098;15.474;2023-03-24T03:47:13;19.67;;;15.17;;
11761;SDS011;5938;47.098;15.474;2023-03-24T03:51:19;18.97;;;14.67;;
11761;SDS011;5938;47.098;15.474;2023-03-24T03:55:22;19.73;;;14.33;;
11761;SDS011;5938;47.098;15.474;2023-03-24T03:59:27;17.30;;;14.70;;
11761;SDS011;5938;47.098;15.474;2023-03-24T04:03:40;17.20;;;13.17;;
11761;SDS011;5938;47.098;15.474;2023-03-24T04:08:06;15.87;;;14.07;;
11761;SDS011;5938;47.098;15.474;2023-03-24T04:12:19;16.33;;;14.43;;
11761;SDS011;5938;47.098;15.474;2023-03-24T04:16:48;19.30;;;15.17;;
11761;SDS011;5938;47.098;15.474;2023-03-24T04:21:04;19.47;;;15.43;;
11761;SDS011;5938;47.098;15.474;2023-03-24T04:25:18;17.63;;;15.00;;
11761;SDS011;5938;47.098;15.474;2023-03-24T04:29:31;16.03;;;14.33;;
11761;SDS011;5938;47.098;15.474;2023-03-24T04:33:45;17.13;;;15.20;;
11761;SDS011;5938;47.098;15.474;2023-03-24T04:37:53;22.47;;;16.73;;
11761;SDS011;5938;47.098;15.474;2023-03-24T04:42:00;17.13;;;14.87;;
11761;SDS011;5938;47.098;15.474;2023-03-24T04:46:06;17.00;;;13.90;;
11761;SDS011;5938;47.098;15.474;2023-03-24T04:50:11;20.23;;;17.17;;
11761;SDS011;5938;47.098;15.474;2023-03-24T04:54:16;18.33;;;15.67;;
11761;SDS011;5938;47.098;15.474;2023-03-24T04:58:20;21.83;;;15.83;;
11761;SDS011;5938;47.098;15.474;2023-03-24T05:02:24;16.80;;;14.63;;
11761;SDS011;5938;47.098;15.474;2023-03-24T05:06:27;17.90;;;16.00;;
11761;SDS011;5938;47.098;15.474;2023-03-24T05:10:32;21.40;;;16.17;;
11761;SDS011;5938;47.098;15.474;2023-03-24T05:14:36;17.97;;;14.10;;
11761;SDS011;5938;47.098;15.474;2023-03-24T05:18:39;18.10;;;15.33;;
11761;SDS011;5938;47.098;15.474;2023-03-24T05:22:43;18.40;;;15.90;;
11761;SDS011;5938;47.098;15.474;2023-03-24T05:26:48;22.77;;;16.67;;
11761;SDS011;5938;47.098;15.474;2023-03-24T05:30:52;24.27;;;18.73;;
11761;SDS011;5938;47.098;15.474;2023-03-24T05:34:55;26.63;;;20.07;;
11761;SDS011;5938;47.098;15.474;2023-03-24T05:38:59;25.60;;;17.40;;
11761;SDS011;5938;47.098;15.474;2023-03-24T05:43:03;19.53;;;15.60;;
11761;SDS011;5938;47.098;15.474;2023-03-24T05:47:08;24.70;;;17.50;;
11761;SDS011;5938;47.098;15.474;2023-03-24T05:51:13;18.17;;;14.17;;
11761;SDS011;5938;47.098;15.474;2023-03-24T05:55:16;19.00;;;16.37;;
11761;SDS011;5938;47.098;15.474;2023-03-24T05:59:21;17.70;;;14.73;;
11761;SDS011;5938;47.098;15.474;2023-03-24T06:03:27;21.50;;;17.47;;
11761;SDS011;5938;47.098;15.474;2023-03-24T06:07:35;19.77;;;16.70;;
11761;SDS011;5938;47.098;15.474;2023-03-24T06:11:38;23.30;;;16.03;;
11761;SDS011;5938;47.098;15.474;2023-03-24T06:15:43;24.63;;;17.83;;
11761;SDS011;5938;47.098;15.474;2023-03-24T06:19:49;18.40;;;16.47;;
11761;SDS011;5938;47.098;15.474;2023-03-24T06:23:52;20.43;;;15.97;;
11761;SDS011;5938;47.098;15.474;2023-03-24T06:27:57;16.93;;;14.87;;
11761;SDS011;5938;47.098;15.474;2023-03-24T06:32:07;17.43;;;15.70;;
11761;SDS011;5938;47.098;15.474;2023-03-24T06:36:11;19.23;;;15.57;;
11761;SDS011;5938;47.098;15.474;2023-03-24T06:40:15;21.60;;;16.80;;
11761;SDS011;5938;47.098;15.474;2023-03-24T06:44:18;17.70;;;14.93;;
11761;SDS011;5938;47.098;15.474;2023-03-24T06:48:23;20.60;;;16.77;;
11761;SDS011;5938;47.098;15.474;2023-03-24T06:52:29;16.70;;;15.20;;
11761;SDS011;5938;47.098;15.474;2023-03-24T06:56:32;21.10;;;16.70;;
11761;SDS011;5938;47.098;15.474;2023-03-24T07:00:36;17.30;;;15.63;;
11761;SDS011;5938;47.098;15.474;2023-03-24T07:04:41;24.60;;;16.63;;
11761;SDS011;5938;47.098;15.474;2023-03-24T07:08:46;17.83;;;13.73;;
11761;SDS011;5938;47.098;15.474;2023-03-24T07:12:49;14.70;;;11.80;;
11761;SDS011;5938;47.098;15.474;2023-03-24T07:16:54;13.40;;;12.10;;
11761;SDS011;5938;47.098;15.474;2023-03-24T07:21:00;14.87;;;11.93;;
11761;SDS011;5938;47.098;15.474;2023-03-24T07:25:05;14.03;;;12.30;;
11761;SDS011;5938;47.098;15.474;2023-03-24T07:29:08;17.20;;;11.10;;
11761;SDS011;5938;47.098;15.474;2023-03-24T07:33:13;15.83;;;11.50;;
11761;SDS011;5938;47.098;15.474;2023-03-24T07:37:18;12.37;;;11.07;;
11761;SDS011;5938;47.098;15.474;2023-03-24T07:41:22;13.63;;;11.43;;
11761;SDS011;5938;47.098;15.474;2023-03-24T07:45:27;13.30;;;12.03;;
11761;SDS011;5938;47.098;15.474;2023-03-24T07:49:31;13.03;;;11.83;;
11761;SDS011;5938;47.098;15.474;2023-03-24T07:53:36;15.37;;;12.03;;
11761;SDS011;5938;47.098;15.474;2023-03-24T07:57:40;14.60;;;13.00;;
11761;SDS011;5938;47.098;15.474;2023-03-24T08:01:44;15.20;;;13.70;;
11761;SDS011;5938;47.098;15.474;2023-03-24T08:05:55;16.83;;;13.10;;
11761;SDS011;5938;47.098;15.474;2023-03-24T08:10:00;14.30;;;12.83;;
11761;SDS011;5938;47.098;15.474;2023-03-24T08:14:07;13.17;;;11.93;;
11761;SDS011;5938;47.098;15.474;2023-03-24T08:18:10;14.17;;;12.30;;
11761;SDS011;5938;47.098;15.474;2023-03-24T08:22:14;14.40;;;12.80;;
11761;SDS011;5938;47.098;15.474;2023-03-24T08:26:19;12.43;;;11.20;;
11761;SDS011;5938;47.098;15.474;2023-03-24T08:30:27;15.23;;;13.63;;
11761;SDS011;5938;47.098;15.474;2023-03-24T08:34:32;14.47;;;12.33;;
11761;SDS011;5938;47.098;15.474;2023-03-24T08:38:35;26.33;;;13.37;;
11761;SDS011;5938;47.098;15.474;2023-03-24T08:42:43;22.70;;;15.87;;
11761;SDS011;5938;47.098;15.474;2023-03-24T08:46:49;20.47;;;14.53;;
11761;SDS011;5938;47.098;15.474;2023-03-24T08:50:53;17.00;;;12.90;;
11761;SDS011;5938;47.098;15.474;2023-03-24T08:54:57;14.97;;;12.53;;
11761;SDS011;5938;47.098;15.474;2023-03-24T08:59:03;19.03;;;15.00;;
11761;SDS011;5938;47.098;15.474;2023-03-24T09:03:08;14.40;;;13.03;;
11761;SDS011;5938;47.098;15.474;2023-03-24T09:07:14;13.10;;;11.70;;
11761;SDS011;5938;47.098;15.474;2023-03-24T09:11:19;14.27;;;12.80;;
11761;SDS011;5938;47.098;15.474;2023-03-24T09:15:26;13.97;;;12.00;;
11761;SDS011;5938;47.098;15.474;2023-03-24T09:19:30;14.33;;;11.67;;
11761;SDS011;5938;47.098;15.474;2023-03-24T09:23:34;12.43;;;11.30;;
11761;SDS011;5938;47.098;15.474;2023-03-24T09:27:38;13.63;;;12.23;;
11761;SDS011;5938;47.098;15.474;2023-03-24T09:31:45;15.60;;;11.50;;
11761;SDS011;5938;47.098;15.474;2023-03-24T09:35:52;14.77;;;11.63;;
11761;SDS011;5938;47.098;15.474;2023-03-24T09:40:00;16.13;;;12.07;;
11761;SDS011;5938;47.098;15.474;2023-03-24T09:44:06;13.77;;;12.47;;
11761;SDS011;5938;47.098;15.474;2023-03-24T09:48:29;13.97;;;12.67;;
11761;SDS011;5938;47.098;15.474;2023-03-24T09:52:39;13.50;;;12.40;;
11761;SDS011;5938;47.098;15.474;2023-03-24T09:56:49;14.97;;;13.47;;
11761;SDS011;5938;47.098;15.474;2023-03-24T10:00:54;12.80;;;11.50;;
11761;SDS011;5938;47.098;15.474;2023-03-24T10:04:59;13.70;;;12.50;;
11761;SDS011;5938;47.098;15.474;2023-03-24T10:09:06;14.40;;;12.67;;
11761;SDS011;5938;47.098;15.474;2023-03-24T10:13:26;13.17;;;12.03;;
11761;SDS011;5938;47.098;15.474;2023-03-24T10:17:43;12.40;;;11.20;;
11761;SDS011;5938;47.098;15.474;2023-03-24T10:21:58;13.73;;;12.30;;
11761;SDS011;5938;47.098;15.474;2023-03-24T10:26:13;14.80;;;13.43;;
11761;SDS011;5938;47.098;15.474;2023-03-24T10:30:28;14.63;;;13.13;;
11761;SDS011;5938;47.098;15.474;2023-03-24T10:34:34;14.57;;;13.17;;
11761;SDS011;5938;47.098;15.474;2023-03-24T10:38:41;13.70;;;12.07;;
11761;SDS011;5938;47.098;15.474;2023-03-24T10:42:46;13.00;;;11.80;;
11761;SDS011;5938;47.098;15.474;2023-03-24T10:47:09;15.47;;;14.00;;
11761;SDS011;5938;47.098;15.474;2023-03-24T10:51:17;14.00;;;12.53;;
11761;SDS011;5938;47.098;15.474;2023-03-24T10:55:28;14.53;;;13.13;;
11761;SDS011;5938;47.098;15.474;2023-03-24T10:59:34;13.07;;;11.87;;
11761;SDS011;5938;47.098;15.474;2023-03-24T11:03:40;12.00;;;10.90;;
11761;SDS011;5938;47.098;15.474;2023-03-24T11:07:46;14.50;;;13.20;;
11761;SDS011;5938;47.098;15.474;2023-03-24T11:11:53;14.10;;;11.50;;
11761;SDS011;5938;47.098;15.474;2023-03-24T11:16:05;14.07;;;10.93;;
11761;SDS011;5938;47.098;15.474;2023-03-24T11:20:15;13.27;;;11.90;;
11761;SDS011;5938;47.098;15.474;2023-03-24T11:24:21;12.10;;;11.00;;
11761;SDS011;5938;47.098;15.474;2023-03-24T11:28:27;13.53;;;12.33;;
11761;SDS011;5938;47.098;15.474;2023-03-24T11:32:32;10.93;;;9.77;;
11761;SDS011;5938;47.098;15.474;2023-03-24T11:36:46;13.50;;;12.30;;
11761;SDS011;5938;47.098;15.474;2023-03-24T11:40:52;12.10;;;11.03;;
11761;SDS011;5938;47.098;15.474;2023-03-24T11:45:01;12.27;;;11.17;;
11761;SDS011;5938;47.098;15.474;2023-03-24T11:49:22;12.40;;;11.20;;
11761;SDS011;5938;47.098;15.474;2023-03-24T11:53:30;11.77;;;10.53;;
11761;SDS011;5938;47.098;15.474;2023-03-24T11:57:44;13.53;;;12.13;;
11761;SDS011;5938;47.098;15.474;2023-03-24T12:01:55;11.03;;;10.13;;
11761;SDS011;5938;47.098;15.474;2023-03-24T12:06:05;14.40;;;12.03;;
11761;SDS011;5938;47.098;15.474;2023-03-24T12:10:21;11.97;;;10.87;;
11761;SDS011;5938;47.098;15.474;2023-03-24T12:14:41;12.17;;;10.97;;
11761;SDS011;5938;47.098;15.474;2023-03-24T12:19:04;11.60;;;10.50;;
11761;SDS011;5938;47.098;15.474;2023-03-24T12:23:29;9.13;;;8.33;;
11761;SDS011;5938;47.098;15.474;2023-03-24T12:27:42;10.90;;;9.80;;
11761;SDS011;5938;47.098;15.474;2023-03-24T12:32:02;11.73;;;10.70;;
11761;SDS011;5938;47.098;15.474;2023-03-24T12:36:30;9.57;;;8.67;;
11761;SDS011;5938;47.098;15.474;2023-03-24T12:41:00;12.47;;;11.20;;
11761;SDS011;5938;47.098;15.474;2023-03-24T12:45:28;10.50;;;9.23;;
11761;SDS011;5938;47.098;15.474;2023-03-24T12:49:42;12.13;;;9.93;;
11761;SDS011;5938;47.098;15.474;2023-03-24T12:53:58;12.60;;;10.47;;
11761;SDS011;5938;47.098;15.474;2023-03-24T12:58:14;9.80;;;8.90;;
11761;SDS011;5938;47.098;15.474;2023-03-24T13:02:24;14.10;;;9.30;;
11761;SDS011;5938;47.098;15.474;2023-03-24T13:06:32;12.97;;;10.07;;
11761;SDS011;5938;47.098;15.474;2023-03-24T13:10:41;10.83;;;9.83;;
11761;SDS011;5938;47.098;15.474;2023-03-24T13:14:50;10.40;;;9.40;;
11761;SDS011;5938;47.098;15.474;2023-03-24T13:19:00;10.43;;;9.43;;
11761;SDS011;5938;47.098;15.474;2023-03-24T13:23:08;9.47;;;8.57;;
11761;SDS011;5938;47.098;15.474;2023-03-24T13:27:27;9.77;;;8.77;;
11761;SDS011;5938;47.098;15.474;2023-03-24T13:31:35;9.40;;;8.50;;
11761;SDS011;5938;47.098;15.474;2023-03-24T13:35:53;8.73;;;8.03;;
11761;SDS011;5938;47.098;15.474;2023-03-24T13:40:25;10.33;;;9.23;;
11761;SDS011;5938;47.098;15.474;2023-03-24T13:44:35;9.43;;;8.43;;
11761;SDS011;5938;47.098;15.474;2023-03-24T13:48:41;9.27;;;8.17;;
11761;SDS011;5938;47.098;15.474;2023-03-24T13:52:48;10.23;;;9.20;;
11761;SDS011;5938;47.098;15.474;2023-03-24T13:56:53;11.70;;;8.90;;
11761;SDS011;5938;47.098;15.474;2023-03-24T14:01:11;9.50;;;8.70;;
11761;SDS011;5938;47.098;15.474;2023-03-24T14:05:40;9.20;;;8.40;;
11761;SDS011;5938;47.098;15.474;2023-03-24T14:09:59;9.30;;;8.40;;
11761;SDS011;5938;47.098;15.474;2023-03-24T14:14:04;10.40;;;8.43;;
11761;SDS011;5938;47.098;15.474;2023-03-24T14:18:15;8.13;;;7.33;;
11761;SDS011;5938;47.098;15.474;2023-03-24T14:22:44;8.57;;;7.77;;
11761;SDS011;5938;47.098;15.474;2023-03-24T14:26:49;8.07;;;7.37;;
11761;SDS011;5938;47.098;15.474;2023-03-24T14:31:01;11.90;;;8.90;;
11761;SDS011;5938;47.098;15.474;2023-03-24T14:35:24;8.90;;;7.40;;
11761;SDS011;5938;47.098;15.474;2023-03-24T14:39:34;8.50;;;7.60;;
11761;SDS011;5938;47.098;15.474;2023-03-24T14:43:52;9.33;;;7.93;;
11761;SDS011;5938;47.098;15.474;2023-03-24T14:47:57;9.70;;;8.80;;
11761;SDS011;5938;47.098;15.474;2023-03-24T14:52:08;9.03;;;8.10;;
11761;SDS011;5938;47.098;15.474;2023-03-24T14:56:16;9.80;;;8.90;;
11761;SDS011;5938;47.098;15.474;2023-03-24T15:00:25;8.73;;;7.90;;
11761;SDS011;5938;47.098;15.474;2023-03-24T15:04:34;8.50;;;7.67;;
11761;SDS011;5938;47.098;15.474;2023-03-24T15:08:44;14.60;;;8.70;;
11761;SDS011;5938;47.098;15.474;2023-03-24T15:12:51;10.23;;;8.33;;
11761;SDS011;5938;47.098;15.474;2023-03-24T15:16:56;7.97;;;7.30;;
11761;SDS011;5938;47.098;15.474;2023-03-24T15:21:12;8.93;;;8.17;;
11761;SDS011;5938;47.098;15.474;2023-03-24T15:25:19;8.60;;;7.70;;
11761;SDS011;5938;47.098;15.474;2023-03-24T15:29:28;10.40;;;9.30;;
11761;SDS011;5938;47.098;15.474;2023-03-24T15:33:37;12.53;;;8.70;;
11761;SDS011;5938;47.098;15.474;2023-03-24T15:37:41;10.30;;;9.20;;
11761;SDS011;5938;47.098;15.474;2023-03-24T15:41:50;9.63;;;8.63;;
11761;SDS011;5938;47.098;15.474;2023-03-24T15:45:56;9.30;;;8.33;;
11761;SDS011;5938;47.098;15.474;2023-03-24T15:50:26;10.73;;;9.73;;
11761;SDS011;5938;47.098;15.474;2023-03-24T15:54:36;10.03;;;8.37;;
11761;SDS011;5938;47.098;15.474;2023-03-24T15:58:46;7.93;;;7.23;;
11761;SDS011;5938;47.098;15.474;2023-03-24T16:02:53;9.00;;;8.17;;
11761;SDS011;5938;47.098;15.474;2023-03-24T16:06:58;8.40;;;7.60;;
11761;SDS011;5938;47.098;15.474;2023-03-24T16:11:02;10.20;;;8.03;;
11761;SDS011;5938;47.098;15.474;2023-03-24T16:15:12;10.67;;;7.17;;
11761;SDS011;5938;47.098;15.474;2023-03-24T16:19:16;7.90;;;7.20;;
11761;SDS011;5938;47.098;15.474;2023-03-24T16:23:20;7.80;;;7.10;;
11761;SDS011;5938;47.098;15.474;2023-03-24T16:27:27;8.37;;;7.20;;
11761;SDS011;5938;47.098;15.474;2023-03-24T16:31:32;8.77;;;6.73;;
11761;SDS011;5938;47.098;15.474;2023-03-24T16:35:36;10.00;;;7.00;;
11761;SDS011;5938;47.098;15.474;2023-03-24T16:39:40;8.43;;;6.60;;
11761;SDS011;5938;47.098;15.474;2023-03-24T16:43:44;15.40;;;7.50;;
11761;SDS011;5938;47.098;15.474;2023-03-24T16:47:50;13.83;;;7.33;;
11761;SDS011;5938;47.098;15.474;2023-03-24T16:51:54;11.20;;;6.80;;
11761;SDS011;5938;47.098;15.474;2023-03-24T16:55:58;10.93;;;5.83;;
11761;SDS011;5938;47.098;15.474;2023-03-24T17:00:03;10.80;;;6.87;;
11761;SDS011;5938;47.098;15.474;2023-03-24T17:04:14;8.50;;;7.37;;
11761;SDS011;5938;47.098;15.474;2023-03-24T17:08:20;14.40;;;8.03;;
11761;SDS011;5938;47.098;15.474;2023-03-24T17:12:24;8.77;;;6.80;;
11761;SDS011;5938;47.098;15.474;2023-03-24T17:16:29;8.70;;;7.67;;
11761;SDS011;5938;47.098;15.474;2023-03-24T17:20:38;9.50;;;7.17;;
11761;SDS011;5938;47.098;15.474;2023-03-24T17:24:42;9.40;;;7.47;;
11761;SDS011;5938;47.098;15.474;2023-03-24T17:28:48;9.77;;;8.07;;
11761;SDS011;5938;47.098;15.474;2023-03-24T17:32:52;13.30;;;7.93;;
11761;SDS011;5938;47.098;15.474;2023-03-24T17:37:02;7.13;;;6.53;;
11761;SDS011;5938;47.098;15.474;2023-03-24T17:41:12;10.70;;;8.03;;
11761;SDS011;5938;47.098;15.474;2023-03-24T17:45:18;8.90;;;8.00;;
11761;SDS011;5938;47.098;15.474;2023-03-24T17:49:24;8.73;;;7.50;;
11761;SDS011;5938;47.098;15.474;2023-03-24T17:57:39;8.93;;;7.67;;
11761;SDS011;5938;47.098;15.474;2023-03-24T18:01:46;10.43;;;8.80;;
11761;SDS011;5938;47.098;15.474;2023-03-24T18:05:53;9.53;;;8.07;;
11761;SDS011;5938;47.098;15.474;2023-03-24T18:10:07;9.93;;;8.10;;
11761;SDS011;5938;47.098;15.474;2023-03-24T18:14:18;8.97;;;8.07;;
11761;SDS011;5938;47.098;15.474;2023-03-24T18:18:26;14.10;;;8.90;;
11761;SDS011;5938;47.098;15.474;2023-03-24T18:22:31;10.63;;;7.13;;
11761;SDS011;5938;47.098;15.474;2023-03-24T18:26:43;8.87;;;8.00;;
11761;SDS011;5938;47.098;15.474;2023-03-24T18:30:52;9.80;;;8.27;;
11761;SDS011;5938;47.098;15.474;2023-03-24T18:34:57;8.73;;;7.83;;
11761;SDS011;5938;47.098;15.474;2023-03-24T18:39:04;7.40;;;6.70;;
11761;SDS011;5938;47.098;15.474;2023-03-24T18:43:15;7.77;;;7.03;;
11761;SDS011;5938;47.098;15.474;2023-03-24T18:47:26;8.17;;;7.37;;
11761;SDS011;5938;47.098;15.474;2023-03-24T18:51:32;9.97;;;7.57;;
11761;SDS011;5938;47.098;15.474;2023-03-24T18:55:41;10.43;;;9.40;;
11761;SDS011;5938;47.098;15.474;2023-03-24T18:59:50;10.20;;;9.27;;
11761;SDS011;5938;47.098;15.474;2023-03-24T19:03:54;9.67;;;8.80;;
11761;SDS011;5938;47.098;15.474;2023-03-24T19:08:03;9.47;;;8.50;;
11761;SDS011;5938;47.098;15.474;2023-03-24T19:12:09;9.93;;;9.00;;
11761;SDS011;5938;47.098;15.474;2023-03-24T19:16:21;10.43;;;8.70;;
11761;SDS011;5938;47.098;15.474;2023-03-24T19:20:28;11.07;;;9.27;;
11761;SDS011;5938;47.098;15.474;2023-03-24T19:24:34;10.40;;;8.13;;
11761;SDS011;5938;47.098;15.474;2023-03-24T19:28:40;9.87;;;8.97;;
11761;SDS011;5938;47.098;15.474;2023-03-24T19:32:51;10.73;;;9.63;;
11761;SDS011;5938;47.098;15.474;2023-03-24T19:36:59;12.90;;;9.73;;
11761;SDS011;5938;47.098;15.474;2023-03-24T19:41:07;11.93;;;9.10;;
11761;SDS011;5938;47.098;15.474;2023-03-24T19:45:16;8.70;;;7.80;;
11761;SDS011;5938;47.098;15.474;2023-03-24T19:49:27;14.77;;;10.10;;
11761;SDS011;5938;47.098;15.474;2023-03-24T19:53:35;15.97;;;10.80;;
11761;SDS011;5938;47.098;15.474;2023-03-24T19:57:42;9.83;;;8.83;;
11761;SDS011;5938;47.098;15.474;2023-03-24T20:01:50;14.47;;;11.50;;
11761;SDS011;5938;47.098;15.474;2023-03-24T20:06:11;14.33;;;10.10;;
11761;SDS011;5938;47.098;15.474;2023-03-24T20:10:20;12.87;;;10.60;;
11761;SDS011;5938;47.098;15.474;2023-03-24T20:14:26;13.30;;;9.73;;
11761;SDS011;5938;47.098;15.474;2023-03-24T20:18:36;13.13;;;9.87;;
11761;SDS011;5938;47.098;15.474;2023-03-24T20:22:46;8.20;;;7.40;;
11761;SDS011;5938;47.098;15.474;2023-03-24T20:26:53;9.60;;;7.17;;
11761;SDS011;5938;47.098;15.474;2023-03-24T20:31:00;8.90;;;8.03;;
11761;SDS011;5938;47.098;15.474;2023-03-24T20:35:12;10.93;;;7.40;;
11761;SDS011;5938;47.098;15.474;2023-03-24T20:39:40;9.30;;;7.87;;
11761;SDS011;5938;47.098;15.474;2023-03-24T20:44:00;9.20;;;7.93;;
11761;SDS011;5938;47.098;15.474;2023-03-24T20:48:08;17.63;;;10.80;;
11761;SDS011;5938;47.098;15.474;2023-03-24T20:52:13;12.17;;;10.27;;
11761;SDS011;5938;47.098;15.474;2023-03-24T20:56:23;9.43;;;8.50;;
11761;SDS011;5938;47.098;15.474;2023-03-24T21:00:30;9.40;;;8.50;;
11761;SDS011;5938;47.098;15.474;2023-03-24T21:04:39;9.60;;;8.70;;
11761;SDS011;5938;47.098;15.474;2023-03-24T21:08:47;9.03;;;8.13;;
11761;SDS011;5938;47.098;15.474;2023-03-24T21:12:57;10.00;;;8.83;;
11761;SDS011;5938;47.098;15.474;2023-03-24T21:17:03;12.00;;;9.40;;
11761;SDS011;5938;47.098;15.474;2023-03-24T21:21:09;11.00;;;9.97;;
11761;SDS011;5938;47.098;15.474;2023-03-24T21:25:15;14.30;;;11.67;;
11761;SDS011;5938;47.098;15.474;2023-03-24T21:29:22;14.17;;;11.00;;
11761;SDS011;5938;47.098;15.474;2023-03-24T21:33:27;11.60;;;10.40;;
11761;SDS011;5938;47.098;15.474;2023-03-24T21:37:32;12.83;;;11.03;;
11761;SDS011;5938;47.098;15.474;2023-03-24T21:41:36;11.60;;;10.43;;
11761;SDS011;5938;47.098;15.474;2023-03-24T21:45:42;16.30;;;12.00;;
11761;SDS011;5938;47.098;15.474;2023-03-24T21:49:47;17.03;;;12.80;;
11761;SDS011;5938;47.098;15.474;2023-03-24T21:53:54;19.90;;;12.47;;
11761;SDS011;5938;47.098;15.474;2023-03-24T21:57:59;16.87;;;14.10;;
11761;SDS011;5938;47.098;15.474;2023-03-24T22:02:05;16.37;;;12.87;;
11761;SDS011;5938;47.098;15.474;2023-03-24T22:06:14;15.07;;;12.57;;
11761;SDS011;5938;47.098;15.474;2023-03-24T22:10:18;13.27;;;10.13;;
11761;SDS011;5938;47.098;15.474;2023-03-24T22:14:23;11.53;;;10.20;;
11761;SDS011;5938;47.098;15.474;2023-03-24T22:18:29;7.70;;;6.97;;
11761;SDS011;5938;47.098;15.474;2023-03-24T22:22:34;3.60;;;3.30;;
11761;SDS011;5938;47.098;15.474;2023-03-24T22:26:39;3.50;;;3.20;;
11761;SDS011;5938;47.098;15.474;2023-03-24T22:30:42;2.77;;;2.50;;
11761;SDS011;5938;47.098;15.474;2023-03-24T22:34:48;3.20;;;2.90;;
11761;SDS011;5938;47.098;15.474;2023-03-24T22:38:52;2.43;;;1.30;;
11761;SDS011;5938;47.098;15.474;2023-03-24T22:42:56;1.43;;;1.33;;
11761;SDS011;5938;47.098;15.474;2023-03-24T22:46:59;2.40;;;1.40;;
11761;SDS011;5938;47.098;15.474;2023-03-24T22:51:06;1.83;;;1.20;;
11761;SDS011;5938;47.098;15.474;2023-03-24T22:55:13;0.87;;;0.87;;
11761;SDS011;5938;47.098;15.474;2023-03-24T22:59:17;1.60;;;1.50;;
11761;SDS011;5938;47.098;15.474;2023-03-24T23:03:21;1.30;;;1.10;;
11761;SDS011;5938;47.098;15.474;2023-03-24T23:07:27;1.27;;;0.80;;
11761;SDS011;5938;47.098;15.474;2023-03-24T23:11:31;1.10;;;0.90;;
11761;SDS011;5938;47.098;15.474;2023-03-24T23:15:35;5.40;;;1.07;;
11761;SDS011;5938;47.098;15.474;2023-03-24T23:19:39;0.97;;;0.80;;
11761;SDS011;5938;47.098;15.474;2023-03-24T23:23:46;2.10;;;0.80;;
11761;SDS011;5938;47.098;15.474;2023-03-24T23:27:50;1.63;;;0.90;;
11761;SDS011;5938;47.098;15.474;2023-03-24T23:31:53;1.03;;;0.97;;
11761;SDS011;5938;47.098;15.474;2023-03-24T23:35:57;1.03;;;0.90;;
11761;SDS011;5938;47.098;15.474;2023-03-24T23:40:04;0.70;;;0.70;;
11761;SDS011;5938;47.098;15.474;2023-03-24T23:44:13;1.10;;;1.00;;
11761;SDS011;5938;47.098;15.474;2023-03-24T23:48:20;1.53;;;0.70;;
11761;SDS011;5938;47.098;15.474;2023-03-24T23:52:23;1.23;;;1.13;;
11761;SDS011;5938;47.098;15.474;2023-03-24T23:56:32;0.77;;;0.77;;
